Time;durP1;ratioP1;P1;durP2;ratioP2;P2;SDS_P1;SDS_P2;PMS_P1;PMS_P2;Temp;Humidity;BMP_temperature;BMP_pressure;BME280_temperature;BME280_humidity;BME280_pressure;Samples;Min_cycle;Max_cycle;Signal;HPM_P1;HPM_P2
2021/03/23 00:01:54;;;;;;;13.13;5.80;;;;;;;4.07;91.51;102431.34;5014827;28;20125;-76
2021/03/23 00:04:19;;;;;;;16.23;5.78;;;;;;;4.07;92.13;102428.75;5025931;28;20064;-77
2021/03/23 00:06:45;;;;;;;13.77;5.63;;;;;;;4.06;91.62;102430.47;5014894;28;20049;-75
2021/03/23 00:09:10;;;;;;;7.93;5.20;;;;;;;4.07;92.39;102428.75;4998541;28;20395;-76
2021/03/23 00:11:42;;;;;;;13.27;6.25;;;;;;;4.04;93.04;102431.47;5015755;28;20046;-75
2021/03/23 00:14:12;;;;;;;13.85;6.47;;;;;;;4.09;92.65;102432.13;5015535;28;20540;-78
2021/03/23 00:16:40;;;;;;;16.83;6.43;;;;;;;4.06;93.11;102433.09;5024825;28;20054;-76
2021/03/23 00:19:07;;;;;;;13.98;6.32;;;;;;;3.92;93.80;102427.63;4997091;28;20120;-74
2021/03/23 00:21:33;;;;;;;12.02;6.05;;;;;;;3.88;93.92;102424.31;5020502;28;20058;-76
2021/03/23 00:23:59;;;;;;;16.52;7.00;;;;;;;3.92;94.03;102438.00;5025043;28;20046;-76
2021/03/23 00:26:26;;;;;;;13.07;5.85;;;;;;;3.87;94.20;102429.56;5013524;28;20522;-76
2021/03/23 00:28:53;;;;;;;12.50;6.38;;;;;;;3.82;94.58;102441.88;5015433;28;20128;-76
2021/03/23 00:31:22;;;;;;;12.60;6.07;;;;;;;3.82;94.46;102440.09;5012847;28;20424;-78
2021/03/23 00:33:48;;;;;;;11.60;6.18;;;;;;;3.84;94.18;102440.06;5015800;28;20128;-77
2021/03/23 00:36:21;;;;;;;12.88;5.65;;;;;;;3.81;92.99;102437.59;5012313;28;20145;-77
2021/03/23 00:38:47;;;;;;;13.30;5.50;;;;;;;3.88;92.52;102432.09;5011495;28;20125;-75
2021/03/23 00:41:13;;;;;;;14.32;5.78;;;;;;;3.89;92.74;102436.34;4996922;28;20385;-77
2021/03/23 00:43:40;;;;;;;16.23;5.25;;;;;;;3.94;92.00;102438.78;5004303;28;20065;-78
2021/03/23 00:46:07;;;;;;;9.35;4.65;;;;;;;3.88;92.02;102445.06;4991235;28;20042;-77
2021/03/23 00:48:32;;;;;;;13.63;5.47;;;;;;;3.84;92.14;102440.06;5012264;28;20540;-74
2021/03/23 00:50:58;;;;;;;19.27;6.25;;;;;;;3.77;92.83;102446.38;5014963;28;20050;-76
2021/03/23 00:53:23;;;;;;;10.18;5.45;;;;;;;3.75;92.92;102435.22;5020166;28;20053;-76
2021/03/23 00:55:49;;;;;;;11.45;5.28;;;;;;;3.76;93.01;102427.38;4993108;28;20033;-77
2021/03/23 00:58:15;;;;;;;13.60;5.50;;;;;;;3.68;93.81;102432.88;5016993;28;20526;-78
2021/03/23 01:00:41;;;;;;;14.73;5.05;;;;;;;3.72;93.00;102437.97;4996564;28;20046;-77
2021/03/23 01:03:06;;;;;;;11.85;5.18;;;;;;;3.86;92.48;102444.28;5003599;28;20060;-76
2021/03/23 01:05:34;;;;;;;8.18;4.20;;;;;;;3.74;93.23;102433.53;5015030;28;20542;-76
2021/03/23 01:08:01;;;;;;;8.73;3.63;;;;;;;3.68;92.52;102434.63;5017383;28;20049;-77
2021/03/23 01:10:29;;;;;;;7.60;2.97;;;;;;;3.60;92.60;102424.56;4995780;28;20034;-77
2021/03/23 01:12:55;;;;;;;6.40;2.47;;;;;;;3.55;92.93;102418.69;4997785;28;20053;-78
2021/03/23 01:15:33;;;;;;;4.93;2.20;;;;;;;3.53;92.84;102422.25;5025057;28;20101;-79
2021/03/23 01:17:59;;;;;;;5.50;2.65;;;;;;;3.52;92.90;102426.59;5012530;28;20109;-75
2021/03/23 01:20:27;;;;;;;6.47;2.60;;;;;;;3.57;92.88;102418.63;5015199;28;20060;-76
2021/03/23 01:22:52;;;;;;;8.73;2.55;;;;;;;3.56;92.91;102420.41;4988202;28;20045;-74
2021/03/23 01:25:19;;;;;;;6.72;2.50;;;;;;;3.57;92.80;102403.06;5018558;28;20511;-76
2021/03/23 01:27:48;;;;;;;10.88;2.65;;;;;;;3.44;93.28;102407.88;5004005;28;20045;-78
2021/03/23 01:30:15;;;;;;;5.00;2.50;;;;;;;3.48;93.60;102412.91;5016237;28;20058;-76
2021/03/23 01:32:41;;;;;;;7.32;2.92;;;;;;;3.53;92.52;102415.31;5001355;28;20053;-76
2021/03/23 01:35:07;;;;;;;8.95;2.88;;;;;;;3.46;92.40;102409.50;5002078;28;20471;-76
2021/03/23 01:37:32;;;;;;;7.60;2.72;;;;;;;3.41;92.99;102410.59;5020532;28;20072;-77
2021/03/23 01:39:58;;;;;;;9.82;2.70;;;;;;;3.44;93.03;102410.47;5019218;28;20045;-77
2021/03/23 01:42:41;;;;;;;9.18;2.85;;;;;;;3.44;92.68;102402.69;5018435;28;20053;-76
2021/03/23 01:45:22;;;;;;;7.20;2.60;;;;;;;3.47;92.10;102403.44;5016250;28;20170;-78
2021/03/23 01:47:49;;;;;;;10.10;2.97;;;;;;;3.48;91.19;102399.06;5024010;28;20045;-73
2021/03/23 01:50:17;;;;;;;6.70;2.70;;;;;;;3.40;92.39;102406.31;5033162;28;20058;-76
2021/03/23 01:52:46;;;;;;;5.72;2.60;;;;;;;3.38;92.66;102406.38;5016886;28;20057;-74
2021/03/23 01:55:11;;;;;;;9.93;3.17;;;;;;;3.37;92.88;102412.47;5009251;28;20057;-75
2021/03/23 01:57:38;;;;;;;6.15;3.30;;;;;;;3.35;93.02;102414.25;5003604;28;20050;-78
2021/03/23 02:00:10;;;;;;;9.00;2.95;;;;;;;3.38;92.58;102406.38;5022328;28;20050;-78
2021/03/23 02:02:39;;;;;;;9.48;3.15;;;;;;;3.43;92.31;102412.25;5015678;28;20090;-76
2021/03/23 02:05:07;;;;;;;9.77;3.28;;;;;;;3.47;91.59;102421.59;5000803;28;20037;-77
2021/03/23 02:07:32;;;;;;;8.60;2.83;;;;;;;3.49;91.47;102417.19;5009856;28;20026;-77
2021/03/23 02:09:58;;;;;;;6.18;2.80;;;;;;;3.41;91.98;102421.84;5015693;28;20041;-79
2021/03/23 02:12:31;;;;;;;6.13;3.00;;;;;;;3.38;92.28;102423.69;5016208;28;20129;-74
2021/03/23 02:14:57;;;;;;;6.70;2.60;;;;;;;3.40;92.26;102419.28;4998665;28;20042;-76
2021/03/23 02:17:29;;;;;;;8.32;3.00;;;;;;;3.38;92.23;102415.91;5028868;28;20038;-74
2021/03/23 02:19:58;;;;;;;6.70;2.80;;;;;;;3.36;92.16;102408.19;4981125;28;20058;-74
2021/03/23 02:22:34;;;;;;;13.45;2.92;;;;;;;3.42;92.06;102410.53;5014374;28;20061;-76
2021/03/23 02:25:02;;;;;;;6.40;2.75;;;;;;;3.51;91.68;102407.59;5000245;28;20030;-77
2021/03/23 02:27:30;;;;;;;9.75;3.20;;;;;;;3.64;89.93;102401.94;5015491;28;20025;-76
2021/03/23 02:29:58;;;;;;;9.77;2.50;;;;;;;3.44;90.93;102393.16;5006351;28;20057;-78
2021/03/23 02:32:24;;;;;;;10.27;2.60;;;;;;;3.44;91.18;102408.72;5019434;28;20041;-78
2021/03/23 02:34:49;;;;;;;7.60;2.85;;;;;;;3.42;91.57;102410.53;5013690;28;20052;-77
2021/03/23 02:37:16;;;;;;;7.95;2.80;;;;;;;3.47;91.36;102402.59;4990518;28;20038;-76
2021/03/23 02:39:41;;;;;;;7.05;2.60;;;;;;;3.54;90.79;102398.81;5016956;28;20076;-77
2021/03/23 02:42:08;;;;;;;7.53;2.60;;;;;;;3.53;91.26;102406.69;5011389;28;20188;-75
2021/03/23 02:44:42;;;;;;;9.25;3.15;;;;;;;3.50;90.88;102410.22;5040371;28;20104;-76
2021/03/23 02:47:09;;;;;;;7.07;2.70;;;;;;;3.55;90.80;102413.50;5023766;28;20041;-74
2021/03/23 02:49:35;;;;;;;7.50;2.63;;;;;;;3.58;91.41;102417.72;5032346;28;20033;-77
2021/03/23 02:52:01;;;;;;;6.55;2.97;;;;;;;3.49;91.29;102419.78;5041208;28;20044;-78
2021/03/23 02:54:28;;;;;;;9.65;2.47;;;;;;;3.49;90.83;102424.97;5018774;28;20105;-74
2021/03/23 02:56:53;;;;;;;6.57;2.47;;;;;;;3.64;90.17;102405.34;5029602;28;20072;-75
2021/03/23 02:59:19;;;;;;;6.40;2.80;;;;;;;3.76;89.49;102411.81;5019172;28;20132;-75
2021/03/23 03:01:45;;;;;;;6.93;2.67;;;;;;;3.54;90.09;102404.00;5020068;28;20795;-75
2021/03/23 03:04:10;;;;;;;7.40;2.55;;;;;;;3.63;89.85;102419.22;5019243;28;20046;-78
2021/03/23 03:06:35;;;;;;;5.80;2.42;;;;;;;3.64;88.95;102402.75;5019164;28;20133;-75
2021/03/23 03:09:02;;;;;;;8.93;2.45;;;;;;;3.82;87.92;102408.94;5015475;28;20059;-78
2021/03/23 03:11:27;;;;;;;6.88;1.95;;;;;;;3.81;87.85;102407.28;5030044;28;20121;-75
2021/03/23 03:13:53;;;;;;;5.68;2.10;;;;;;;3.67;88.42;102414.75;5023402;28;20075;-74
2021/03/23 03:16:18;;;;;;;5.97;2.50;;;;;;;3.62;88.35;102412.38;5036029;28;20053;-79
2021/03/23 03:18:44;;;;;;;6.35;2.33;;;;;;;3.62;88.92;102416.72;5030715;28;20045;-75
2021/03/23 03:21:10;;;;;;;7.72;2.35;;;;;;;3.59;89.84;102424.59;5010011;28;20044;-77
2021/03/23 03:23:36;;;;;;;5.68;2.22;;;;;;;3.49;89.64;102421.53;5017977;28;20039;-76
2021/03/23 03:26:03;;;;;;;5.30;1.98;;;;;;;3.55;89.31;102418.69;5039646;28;20040;-77
2021/03/23 03:28:28;;;;;;;7.28;1.80;;;;;;;3.61;88.60;102428.00;5037703;28;20036;-75
2021/03/23 03:30:54;;;;;;;7.30;2.10;;;;;;;3.64;88.30;102422.69;5026177;28;20050;-73
2021/03/23 03:33:22;;;;;;;4.72;2.00;;;;;;;3.81;86.82;102428.03;5016977;28;20065;-74
2021/03/23 03:35:48;;;;;;;7.38;2.20;;;;;;;3.86;86.73;102409.69;5019286;28;20042;-77
2021/03/23 03:38:15;;;;;;;6.72;1.92;;;;;;;3.83;86.82;102410.66;5001727;28;20071;-77
2021/03/23 03:40:45;;;;;;;5.68;2.10;;;;;;;3.84;86.78;102407.16;5022507;28;20457;-78
2021/03/23 03:43:12;;;;;;;8.32;2.28;;;;;;;3.78;87.25;102406.56;5031848;28;20128;-80
2021/03/23 03:45:38;;;;;;;6.47;2.40;;;;;;;3.76;87.28;102411.81;5019116;28;20454;-78
2021/03/23 03:48:04;;;;;;;9.45;2.53;;;;;;;3.81;87.31;102416.81;5004305;28;20054;-78
2021/03/23 03:50:30;;;;;;;6.85;2.60;;;;;;;3.83;87.16;102410.66;5020978;28;20045;-78
2021/03/23 03:52:57;;;;;;;7.93;2.58;;;;;;;3.79;87.53;102419.47;5019972;28;20046;-78
2021/03/23 03:55:26;;;;;;;5.60;2.30;;;;;;;3.72;88.02;102417.19;5023242;28;20041;-76
2021/03/23 03:57:52;;;;;;;10.30;2.75;;;;;;;3.62;88.72;102424.50;5036515;28;20044;-77
2021/03/23 04:00:20;;;;;;;9.60;2.67;;;;;;;3.72;88.09;102415.44;5021139;28;20050;-77
2021/03/23 04:02:45;;;;;;;9.23;2.58;;;;;;;3.72;87.95;102414.59;5024220;28;20057;-79
2021/03/23 04:05:17;;;;;;;10.18;3.00;;;;;;;3.63;88.76;102428.78;5017514;28;20038;-75
2021/03/23 04:07:43;;;;;;;7.97;2.78;;;;;;;3.61;88.42;102421.03;5015391;28;20046;-76
2021/03/23 04:10:09;;;;;;;5.40;2.55;;;;;;;3.73;88.29;102417.13;5010498;28;20059;-79
2021/03/23 04:12:34;;;;;;;6.63;2.70;;;;;;;3.65;88.54;102413.97;5004386;28;20057;-76
2021/03/23 04:15:00;;;;;;;7.93;2.50;;;;;;;3.73;88.42;102418.88;5020713;28;20045;-77
2021/03/23 04:17:25;;;;;;;7.38;2.83;;;;;;;3.78;88.68;102414.34;5019656;28;20563;-75
2021/03/23 04:19:51;;;;;;;6.75;2.75;;;;;;;3.70;88.29;102415.50;5016310;28;20409;-76
2021/03/23 04:22:16;;;;;;;5.03;2.58;;;;;;;3.84;87.73;102417.56;5014903;28;20113;-77
2021/03/23 04:24:42;;;;;;;6.60;2.70;;;;;;;3.94;86.90;102418.03;5017024;28;20046;-76
2021/03/23 04:27:08;;;;;;;9.15;2.97;;;;;;;3.80;87.72;102415.97;5016247;28;20085;-75
2021/03/23 04:29:33;;;;;;;6.57;2.97;;;;;;;3.71;88.05;102416.31;5015868;28;20451;-78
2021/03/23 04:31:59;;;;;;;7.85;2.70;;;;;;;3.70;88.49;102412.06;4995837;28;20022;-75
2021/03/23 04:34:24;;;;;;;6.10;3.20;;;;;;;3.71;88.58;102426.69;5003734;28;20057;-75
2021/03/23 04:36:50;;;;;;;7.30;3.35;;;;;;;3.86;87.63;102418.34;5005691;28;20058;-75
2021/03/23 04:39:15;;;;;;;11.63;3.30;;;;;;;3.85;87.72;102405.41;5013954;28;20053;-77
2021/03/23 04:41:41;;;;;;;12.02;3.40;;;;;;;3.78;88.21;102422.13;5022695;28;20061;-75
2021/03/23 04:44:07;;;;;;;11.68;3.65;;;;;;;3.85;88.00;102418.38;5018604;28;20045;-76
2021/03/23 04:46:34;;;;;;;7.93;3.25;;;;;;;3.88;87.51;102413.91;5023931;28;20038;-80
2021/03/23 04:49:00;;;;;;;9.93;3.53;;;;;;;3.94;87.56;102430.13;5012335;28;20038;-77
2021/03/23 04:51:28;;;;;;;12.48;3.50;;;;;;;3.93;87.69;102402.50;5014318;28;20061;-76
2021/03/23 04:54:07;;;;;;;10.32;3.60;;;;;;;3.90;87.36;102411.28;5019162;28;20412;-75
2021/03/23 04:56:35;;;;;;;6.25;3.35;;;;;;;3.86;87.81;102401.88;5021368;28;20038;-77
2021/03/23 04:59:02;;;;;;;8.13;3.65;;;;;;;3.85;87.89;102414.03;5021329;28;20054;-74
2021/03/23 05:01:27;;;;;;;9.52;3.50;;;;;;;3.77;88.77;102415.22;5021689;28;20079;-76
2021/03/23 05:03:55;;;;;;;9.48;3.65;;;;;;;3.86;87.91;102409.69;5018480;28;20054;-75
2021/03/23 05:06:22;;;;;;;11.68;3.88;;;;;;;3.90;87.31;102393.94;4998429;28;20032;-75
2021/03/23 05:08:47;;;;;;;10.98;3.63;;;;;;;3.90;87.94;102400.88;5015997;28;20037;-76
2021/03/23 05:11:15;;;;;;;9.27;3.83;;;;;;;3.86;87.78;102397.56;5011231;28;20107;-78
2021/03/23 05:13:41;;;;;;;10.43;4.03;;;;;;;4.03;87.28;102396.00;5036724;28;20483;-76
2021/03/23 05:16:07;;;;;;;10.38;4.25;;;;;;;3.99;86.80;102389.25;5020128;28;20057;-76
2021/03/23 05:18:32;;;;;;;10.18;4.13;;;;;;;3.98;86.72;102391.03;5017313;28;20034;-75
2021/03/23 05:20:58;;;;;;;9.02;4.70;;;;;;;4.01;86.62;102388.31;5015931;28;20058;-76
2021/03/23 05:23:24;;;;;;;10.63;4.30;;;;;;;3.98;86.75;102392.78;5009135;28;20042;-75
2021/03/23 05:25:51;;;;;;;8.38;3.90;;;;;;;3.96;87.34;102402.38;5007549;28;20053;-77
2021/03/23 05:28:17;;;;;;;8.45;4.30;;;;;;;3.95;87.91;102387.69;5009090;28;20110;-76
2021/03/23 05:30:43;;;;;;;9.65;4.25;;;;;;;3.95;87.92;102385.94;5015549;28;20049;-77
2021/03/23 05:33:11;;;;;;;15.52;4.63;;;;;;;4.04;86.67;102380.38;5026238;28;20050;-75
2021/03/23 05:35:37;;;;;;;12.18;5.43;;;;;;;3.99;87.08;102379.72;5013556;28;20050;-76
2021/03/23 05:38:03;;;;;;;10.73;4.38;;;;;;;4.03;87.17;102390.81;5015239;28;20113;-76
2021/03/23 05:40:33;;;;;;;12.02;4.85;;;;;;;4.05;86.88;102389.88;5014875;28;20076;-77
2021/03/23 05:43:30;;;;;;;13.23;4.68;;;;;;;4.04;87.08;102395.13;4982754;28;20567;-75
2021/03/23 05:46:16;;;;;;;14.57;5.15;;;;;;;4.04;86.59;102401.13;5008360;28;20057;-76
2021/03/23 05:48:56;;;;;;;14.90;5.28;;;;;;;4.08;85.79;102399.25;5005058;28;20038;-76
2021/03/23 05:51:32;;;;;;;15.25;4.85;;;;;;;4.10;85.84;102397.44;4996400;28;20044;-77
2021/03/23 05:54:06;;;;;;;7.78;4.93;;;;;;;4.05;86.93;102391.59;5028756;28;20075;-76
2021/03/23 05:56:36;;;;;;;9.95;5.47;;;;;;;4.13;86.78;102391.31;5032512;28;20048;-76
2021/03/23 05:59:28;;;;;;;11.00;5.07;;;;;;;4.25;85.18;102383.81;5034885;28;20053;-77
2021/03/23 06:02:02;;;;;;;12.98;5.38;;;;;;;4.31;85.40;102374.06;5010079;28;20133;-76
2021/03/23 06:04:41;;;;;;;10.57;5.43;;;;;;;4.25;86.06;102381.22;4991779;28;20729;-75
2021/03/23 06:07:12;;;;;;;14.68;5.43;;;;;;;4.21;86.14;102389.22;5023218;28;20536;-74
2021/03/23 06:09:39;;;;;;;13.95;5.50;;;;;;;4.26;86.06;102389.88;5014129;28;20053;-75
2021/03/23 06:12:21;;;;;;;13.80;5.97;;;;;;;4.25;85.70;102389.00;5015477;28;20050;-76
2021/03/23 06:14:47;;;;;;;15.13;5.95;;;;;;;4.32;85.98;102399.16;5012618;28;20164;-76
2021/03/23 06:17:31;;;;;;;16.10;6.03;;;;;;;4.31;86.48;102402.66;5013611;28;20655;-77
2021/03/23 06:20:16;;;;;;;19.40;6.65;;;;;;;4.33;86.23;102408.63;4996061;28;20412;-77
2021/03/23 06:23:28;;;;;;;18.13;6.78;;;;;;;4.40;85.71;102408.28;5013190;28;20049;-74
2021/03/23 06:26:14;;;;;;;19.52;6.78;;;;;;;4.49;85.60;102413.09;4996741;28;20048;-76
2021/03/23 06:29:00;;;;;;;18.40;6.50;;;;;;;4.39;87.13;102403.16;5013607;28;20049;-74
2021/03/23 06:31:55;;;;;;;20.42;6.90;;;;;;;4.55;85.84;102405.94;5009496;28;20042;-77
2021/03/23 06:34:26;;;;;;;17.52;7.07;;;;;;;4.43;86.44;102408.16;5025087;28;20037;-76
2021/03/23 06:36:53;;;;;;;16.23;6.80;;;;;;;4.36;86.66;102413.69;5018358;28;20140;-75
2021/03/23 06:39:21;;;;;;;16.38;7.00;;;;;;;4.43;86.42;102418.56;5013872;28;20042;-77
2021/03/23 06:41:51;;;;;;;16.02;6.88;;;;;;;4.55;85.59;102417.19;4958710;28;20047;-78
2021/03/23 06:44:16;;;;;;;17.10;7.30;;;;;;;4.48;86.01;102416.63;5011856;28;20085;-77
2021/03/23 06:46:44;;;;;;;15.40;6.80;;;;;;;4.45;86.41;102413.31;4990462;28;20077;-75
2021/03/23 06:49:13;;;;;;;20.73;7.13;;;;;;;4.40;86.63;102420.44;4994609;28;20652;-76
2021/03/23 06:52:11;;;;;;;14.02;6.95;;;;;;;4.38;86.73;102417.06;5008327;28;20030;-77
2021/03/23 06:54:40;;;;;;;17.38;7.25;;;;;;;4.49;86.60;102414.84;4991916;28;20058;-77
2021/03/23 06:57:07;;;;;;;17.95;7.13;;;;;;;4.42;85.91;102414.25;5007871;28;20037;-77
2021/03/23 07:00:04;;;;;;;17.08;6.85;;;;;;;4.39;86.59;102414.41;4996346;28;20081;-77
2021/03/23 07:02:40;;;;;;;16.80;6.95;;;;;;;4.41;85.86;102411.75;5013532;28;20064;-77
2021/03/23 07:05:29;;;;;;;19.02;7.50;;;;;;;4.38;87.23;102417.91;5013570;28;20084;-75
2021/03/23 07:08:02;;;;;;;22.95;7.60;;;;;;;4.35;87.31;102406.81;5013777;28;20073;-75
2021/03/23 07:10:39;;;;;;;21.30;8.40;;;;;;;4.48;86.69;102427.03;4999259;28;20038;-77
2021/03/23 07:13:08;;;;;;;18.27;8.40;;;;;;;4.49;86.55;102423.50;5020174;28;20554;-75
2021/03/23 07:15:36;;;;;;;22.23;8.30;;;;;;;4.53;86.54;102432.00;5015963;28;20104;-76
2021/03/23 07:18:04;;;;;;;23.48;8.75;;;;;;;4.51;87.93;102436.44;5011668;28;20096;-76
2021/03/23 07:20:33;;;;;;;22.30;8.00;;;;;;;4.59;86.99;102421.34;4996136;28;20049;-76
2021/03/23 07:23:02;;;;;;;22.63;8.55;;;;;;;4.46;88.61;102422.78;4983498;28;20049;-78
2021/03/23 07:25:42;;;;;;;19.90;9.00;;;;;;;4.51;87.50;102425.19;5026999;28;20480;-77
2021/03/23 07:28:33;;;;;;;20.98;9.48;;;;;;;4.53;88.18;102425.97;4993835;28;20041;-77
2021/03/23 07:31:32;;;;;;;24.40;8.88;;;;;;;4.67;87.81;102431.41;5020601;28;20458;-77
2021/03/23 07:34:18;;;;;;;21.40;8.15;;;;;;;4.62;87.88;102438.56;4983316;28;20081;-76
2021/03/23 07:36:53;;;;;;;25.40;8.70;;;;;;;4.66;87.46;102435.75;5012433;28;20049;-76
2021/03/23 07:39:29;;;;;;;19.02;8.70;;;;;;;4.61;87.57;102445.50;4998182;28;20049;-76
2021/03/23 07:42:05;;;;;;;24.40;9.63;;;;;;;4.61;87.59;102440.31;5016633;28;20056;-77
2021/03/23 07:44:44;;;;;;;19.80;9.27;;;;;;;4.66;87.71;102442.72;5018306;28;20050;-74
2021/03/23 07:47:24;;;;;;;29.52;9.70;;;;;;;4.61;88.65;102435.09;5001264;28;20050;-76
2021/03/23 07:49:59;;;;;;;22.85;9.55;;;;;;;4.71;88.20;102437.31;5015090;28;20042;-76
2021/03/23 07:52:43;;;;;;;24.88;10.02;;;;;;;4.76;88.12;102438.78;5016563;28;20099;-77
2021/03/23 07:55:29;;;;;;;24.67;9.80;;;;;;;4.76;87.69;102436.19;5000736;28;20068;-78
2021/03/23 07:58:16;;;;;;;25.45;10.43;;;;;;;4.68;88.76;102444.34;4997070;28;20054;-77
2021/03/23 08:01:01;;;;;;;29.15;10.38;;;;;;;4.69;88.43;102442.59;4992042;28;20054;-76
2021/03/23 08:03:39;;;;;;;28.15;11.27;;;;;;;4.66;88.78;102456.56;5022623;28;20428;-76
2021/03/23 08:06:25;;;;;;;25.35;11.07;;;;;;;4.71;89.01;102451.19;5022105;28;20097;-78
2021/03/23 08:09:01;;;;;;;28.45;10.90;;;;;;;4.82;88.22;102453.28;5001783;28;20048;-75
2021/03/23 08:11:48;;;;;;;25.00;10.57;;;;;;;4.84;87.81;102451.47;5009893;28;20112;-76
2021/03/23 08:14:31;;;;;;;27.67;10.80;;;;;;;4.80;88.26;102452.50;5018288;28;20057;-76
2021/03/23 08:17:34;;;;;;;30.42;11.00;;;;;;;4.88;87.78;102455.63;5012532;28;20038;-77
2021/03/23 08:20:19;;;;;;;20.80;10.57;;;;;;;4.92;87.89;102456.34;5018459;28;20054;-74
2021/03/23 08:23:08;;;;;;;33.08;10.77;;;;;;;4.90;87.65;102450.34;5008775;28;20122;-76
2021/03/23 08:25:45;;;;;;;26.50;11.30;;;;;;;4.90;88.21;102451.22;4991443;28;20046;-76
2021/03/23 08:28:29;;;;;;;26.17;11.00;;;;;;;5.02;87.36;102444.63;5020574;28;20481;-75
2021/03/23 08:31:28;;;;;;;27.95;11.43;;;;;;;4.92;87.09;102449.38;4999213;28;20447;-76
2021/03/23 08:34:12;;;;;;;31.80;11.18;;;;;;;4.99;87.45;102457.75;5015565;28;20042;-76
2021/03/23 08:36:56;;;;;;;32.40;12.15;;;;;;;4.98;87.90;102453.47;5016011;28;20467;-76
2021/03/23 08:40:19;;;;;;;26.17;11.95;;;;;;;4.98;87.28;102451.69;5013397;28;20496;-77
2021/03/23 08:42:46;;;;;;;24.90;11.90;;;;;;;4.97;87.97;102454.38;4925250;29;20506;-76
2021/03/23 08:45:28;;;;;;;31.38;12.52;;;;;;;4.94;89.15;102457.13;4927537;29;20139;-77
2021/03/23 08:48:02;;;;;;;33.28;12.50;;;;;;;5.04;87.93;102454.03;4999193;28;20050;-78
2021/03/23 08:50:33;;;;;;;38.88;13.90;;;;;;;5.15;86.87;102460.50;5007892;28;20080;-75
2021/03/23 08:53:01;;;;;;;33.00;13.75;;;;;;;5.17;86.79;102458.69;5015356;28;20038;-77
2021/03/23 08:55:30;;;;;;;31.98;13.00;;;;;;;5.23;86.16;102467.03;5026437;28;20033;-77
2021/03/23 08:58:04;;;;;;;26.88;12.82;;;;;;;5.24;85.84;102460.94;5011815;28;20519;-77
2021/03/23 09:00:58;;;;;;;35.25;14.15;;;;;;;5.24;87.36;102466.16;5027383;28;20073;-76
2021/03/23 09:03:39;;;;;;;;;;;;;;;5.37;86.33;102463.84;5013302;28;20049;-77
2021/03/23 09:06:05;;;;;;;34.65;13.40;;;;;;;5.34;86.24;102465.72;4994996;28;19921;-76
2021/03/23 09:08:40;;;;;;;29.70;13.73;;;;;;;5.30;87.25;102466.78;5028620;28;20041;-75
2021/03/23 09:11:07;;;;;;;29.92;13.65;;;;;;;5.27;86.69;102472.94;5010600;28;20595;-75
2021/03/23 09:13:33;;;;;;;31.08;14.05;;;;;;;5.35;86.99;102467.41;5012420;28;20042;-77
2021/03/23 09:15:58;;;;;;;31.38;15.13;;;;;;;5.30;86.08;102472.00;4997873;28;20053;-76
2021/03/23 09:18:28;;;;;;;31.83;14.68;;;;;;;5.40;86.77;102476.69;4989369;28;20048;-76
2021/03/23 09:20:59;;;;;;;29.45;14.15;;;;;;;5.36;86.84;102467.34;5003729;28;20049;-76
2021/03/23 09:23:25;;;;;;;33.58;14.73;;;;;;;5.54;85.58;102478.66;4988460;28;20096;-76
2021/03/23 09:25:56;;;;;;;29.02;14.50;;;;;;;5.55;85.08;102482.09;5013507;28;20049;-78
2021/03/23 09:28:28;;;;;;;30.52;14.30;;;;;;;5.52;85.24;102484.84;5014934;28;20041;-77
2021/03/23 09:31:06;;;;;;;29.80;14.52;;;;;;;5.54;86.30;102485.63;5004201;28;20048;-77
2021/03/23 09:33:43;;;;;;;29.17;14.93;;;;;;;5.56;85.54;102489.84;5030183;28;20109;-77
2021/03/23 09:36:11;;;;;;;30.00;15.35;;;;;;;5.57;85.36;102501.09;5000254;28;20054;-77
2021/03/23 09:38:48;;;;;;;32.83;15.27;;;;;;;5.59;84.91;102504.47;5014232;28;20487;-75
2021/03/23 09:41:19;;;;;;;28.90;14.95;;;;;;;5.68;85.11;102495.41;4996230;28;20045;-75
2021/03/23 09:43:46;;;;;;;34.08;16.45;;;;;;;5.62;84.83;102501.75;4980582;28;20046;-77
2021/03/23 09:46:39;;;;;;;33.80;15.75;;;;;;;5.57;85.24;102503.69;4980046;28;20077;-78
2021/03/23 09:49:18;;;;;;;29.42;15.13;;;;;;;5.72;83.80;102502.16;5013938;28;20046;-75
2021/03/23 09:51:57;;;;;;;35.33;15.70;;;;;;;5.64;84.45;102505.13;5009823;28;20413;-76
2021/03/23 09:54:32;;;;;;;32.40;15.60;;;;;;;5.68;84.71;102506.66;4997751;28;20045;-78
2021/03/23 09:57:22;;;;;;;37.22;16.90;;;;;;;5.71;84.03;102506.53;5007191;28;20084;-76
2021/03/23 09:59:51;;;;;;;31.17;16.25;;;;;;;5.82;83.36;102495.56;5025345;28;20147;-74
2021/03/23 10:02:17;;;;;;;34.47;17.38;;;;;;;5.89;82.91;102490.94;5005505;28;20041;-77
2021/03/23 10:04:44;;;;;;;31.60;16.27;;;;;;;5.97;83.13;102494.03;4977732;28;20413;-77
2021/03/23 10:07:35;;;;;;;33.13;16.35;;;;;;;5.96;83.04;102488.00;5012554;28;20053;-75
2021/03/23 10:10:33;;;;;;;41.05;16.98;;;;;;;6.02;82.38;102492.06;5006712;28;20050;-75
2021/03/23 10:13:27;;;;;;;36.97;16.52;;;;;;;6.08;81.83;102491.75;4979643;28;20061;-77
2021/03/23 10:15:54;;;;;;;37.08;17.60;;;;;;;5.98;83.35;102495.75;4999160;28;20675;-73
2021/03/23 10:18:34;;;;;;;31.67;16.90;;;;;;;6.09;81.80;102496.06;4999149;28;20416;-75
2021/03/23 10:21:02;;;;;;;38.50;17.10;;;;;;;6.12;81.32;102502.88;5017064;28;20156;-78
2021/03/23 10:23:30;;;;;;;34.28;16.83;;;;;;;6.11;80.71;102504.66;4989518;28;20069;-75
2021/03/23 10:25:57;;;;;;;35.97;18.65;;;;;;;6.08;80.55;102507.38;5012177;28;20239;-75
2021/03/23 10:28:36;;;;;;;37.30;19.30;;;;;;;6.06;81.06;102511.84;5008702;28;20061;-77
2021/03/23 10:31:08;;;;;;;41.72;18.80;;;;;;;5.99;81.20;102513.91;5019219;28;20049;-76
2021/03/23 10:33:37;;;;;;;37.47;17.52;;;;;;;6.07;80.96;102512.69;5017394;28;20049;-76
2021/03/23 10:36:04;;;;;;;37.78;17.73;;;;;;;6.07;80.83;102517.91;4996760;28;21055;-76
2021/03/23 10:38:31;;;;;;;39.92;17.92;;;;;;;6.04;80.76;102518.88;4996558;28;20037;-77
2021/03/23 10:41:00;;;;;;;35.65;18.25;;;;;;;6.00;80.74;102512.97;5011209;28;20144;-77
2021/03/23 10:43:35;;;;;;;38.70;17.65;;;;;;;6.03;81.28;102514.59;5016746;28;20409;-80
2021/03/23 10:46:04;;;;;;;37.97;16.63;;;;;;;6.06;81.75;102521.41;5023424;28;20409;-76
2021/03/23 10:48:34;;;;;;;35.70;18.42;;;;;;;6.15;79.90;102520.97;5006290;28;20038;-76
2021/03/23 10:51:20;;;;;;;34.17;17.23;;;;;;;6.14;80.16;102519.28;5013688;28;20037;-76
2021/03/23 10:54:16;;;;;;;32.33;17.63;;;;;;;6.16;78.99;102522.66;5019280;28;20046;-76
2021/03/23 10:57:20;;;;;;;38.08;17.75;;;;;;;6.06;80.15;102514.44;5011948;28;20041;-78
2021/03/23 10:59:45;;;;;;;38.65;17.63;;;;;;;6.03;80.19;102520.66;4972235;28;21016;-78
2021/03/23 11:02:20;;;;;;;38.75;18.52;;;;;;;6.10;80.62;102517.75;5015020;28;20096;-76
2021/03/23 11:05:10;;;;;;;38.00;18.13;;;;;;;6.20;79.54;102519.00;5028245;28;20368;-76
2021/03/23 11:07:46;;;;;;;36.05;18.70;;;;;;;6.23;80.07;102514.50;5009895;28;20054;-78
2021/03/23 11:10:12;;;;;;;37.75;17.90;;;;;;;6.31;78.38;102513.25;5009645;28;20044;-78
2021/03/23 11:12:38;;;;;;;33.30;17.88;;;;;;;6.27;77.84;102507.34;5008979;28;20062;-75
2021/03/23 11:15:05;;;;;;;31.38;16.60;;;;;;;6.31;79.28;102510.63;5010257;28;20041;-77
2021/03/23 11:17:33;;;;;;;32.42;18.42;;;;;;;6.33;77.12;102506.19;4989384;28;20061;-77
2021/03/23 11:20:08;;;;;;;36.42;18.38;;;;;;;6.36;77.69;102509.50;5012638;28;20050;-77
2021/03/23 11:22:35;;;;;;;38.47;19.17;;;;;;;6.51;78.27;102502.69;5011200;28;20444;-76
2021/03/23 11:25:06;;;;;;;39.15;18.77;;;;;;;6.49;76.70;102498.47;5012367;28;20049;-77
2021/03/23 11:27:31;;;;;;;34.13;18.42;;;;;;;6.48;76.94;102500.25;5011152;28;20051;-75
2021/03/23 11:30:01;;;;;;;37.45;19.30;;;;;;;6.48;76.90;102499.38;5014476;28;20124;-76
2021/03/23 11:32:27;;;;;;;37.38;18.92;;;;;;;6.42;76.77;102497.91;5000617;28;20050;-75
2021/03/23 11:34:53;;;;;;;37.92;18.98;;;;;;;6.42;77.11;102497.91;5001822;28;20052;-76
2021/03/23 11:37:19;;;;;;;42.38;19.50;;;;;;;6.42;75.96;102487.50;5017558;28;20042;-76
2021/03/23 11:39:46;;;;;;;38.97;19.20;;;;;;;6.48;76.75;102497.63;5000116;28;20091;-75
2021/03/23 11:42:17;;;;;;;37.78;19.48;;;;;;;6.40;77.04;102490.19;5012305;28;20100;-77
2021/03/23 11:44:46;;;;;;;43.25;20.45;;;;;;;6.45;77.54;102495.19;4981912;28;20140;-76
2021/03/23 11:47:27;;;;;;;40.47;19.92;;;;;;;6.41;76.76;102491.88;5019110;28;20042;-75
2021/03/23 11:50:11;;;;;;;37.60;19.17;;;;;;;6.48;76.74;102495.03;4977196;28;20080;-78